Menlo, Kansas
Current Conditions -  °F | °C
As of 10:55 PM on Friday 24 Oct 2014 (Local Time) from KCBK Reporting Station
Clear Clear  
Wind Chill: 57°   Ceiling: Unl
Heat Index: 57°   Visibility: 10mi
Dew Point: 39°   Wind: 5mph
Humidity: 51%   Direction: 200°SSW
Pressure: 30.1"   Gusts: NA
Location:  39.3723°N, 100.776°W
Report Text: KCBK 250355Z AUTO 20004KT 10SM CLR 14/04 A3010 RMK AO2
Loading
Personal Weather Stations






























Interactive Weather Map
Tropical Storm Tracking
New forecast layout! Learn more

10-Day Weather Forecast

Advertisements
Track Severe Weather on mobile